KILM/ILM METAR and TAF weather

Enter ICAO airport designator
Station Type Date Time Source
KILM METAR 2019/02/22 23:53 UTC NOAA

KILM 222353Z 04008KT 10SM BKN007 OVC013 09/07 A3032 RMK AO2 SLP266 T00890072 10139 20083 51016


Station Type Date Time Source
KILM Decoded METAR 2019/02/22 23:53 UTC NOAA

WILMINGTON INT'L AIRPORT, NC, United States (KILM) 34-16N 077-54W 9M
Feb 22, 2019 - 06:53 PM EST / 2019.02.22 2353 UTC
Wind: from the NE (040 degrees) at 9 MPH (8 KT):0
Visibility: 10 mile(s):0
Sky conditions: overcast
Temperature: 48.0 F (8.9 C)
Dew Point: 45.0 F (7.2 C)
Relative Humidity: 89%
Pressure (altimeter): 30.32 in. Hg (1026 hPa)
Pressure tendency: 0.05 inches (1.6 hPa) higher than three hours ago
ob: KILM 222353Z 04008KT 10SM BKN007 OVC013 09/07 A3032 RMK AO2 SLP266 T00890072 10139 20083 51016
cycle: 0

Station Type Date Time Source
KILM TAF 2019/02/22 23:59 UTC NOAA

TAF
AMD KILM 222259Z 2223/2318 03011KT 3SM BR VCSH OVC008
FM230300 03010KT 5SM BR OVC008


Example: see airport list